Time;durP1;ratioP1;P1;durP2;ratioP2;P2;SDS_P1;SDS_P2;PMS_P1;PMS_P2;Temp;Humidity;BMP_temperature;BMP_pressure;BME280_temperature;BME280_humidity;BME280_pressure;Samples;Min_cycle;Max_cycle;Signal;HPM_P1;HPM_P2
2021/10/22 00:00:01;;;;;;;10.43;3.55;;;;;;;;;;5034145;28;20237;-60
2021/10/22 00:02:28;;;;;;;7.97;2.13;;;;;;;;;;5033299;28;20211;-60
2021/10/22 00:04:56;;;;;;;5.72;1.80;;;;;;;;;;5033013;28;20202;-61
2021/10/22 00:07:24;;;;;;;8.15;2.38;;;;;;;;;;5032992;28;20206;-60
2021/10/22 00:09:51;;;;;;;4.38;1.63;;;;;;;;;;5033214;28;20226;-60
2021/10/22 00:12:19;;;;;;;11.35;3.70;;;;;;;;;;5033174;28;20226;-61
2021/10/22 00:14:47;;;;;;;6.93;1.67;;;;;;;;;;5033060;28;20198;-60
2021/10/22 00:17:15;;;;;;;5.43;2.00;;;;;;;;;;5032754;28;20198;-60
2021/10/22 00:19:42;;;;;;;13.27;2.15;;;;;;;;;;5057881;22;20249;-63
2021/10/22 00:22:09;;;;;;;3.83;1.85;;;;;;;;;;5033940;28;20219;-64
2021/10/22 00:24:37;;;;;;;4.80;1.77;;;;;;;;;;5036171;28;20206;-63
2021/10/22 00:27:04;;;;;;;7.13;1.80;;;;;;;;;;5037457;28;20206;-64
2021/10/22 00:29:31;;;;;;;4.60;1.25;;;;;;;;;;5037837;28;20606;-63
2021/10/22 00:32:00;;;;;;;11.60;2.10;;;;;;;;;;5037249;28;20205;-63
2021/10/22 00:34:28;;;;;;;4.70;1.88;;;;;;;;;;5036906;28;20218;-65
2021/10/22 00:36:57;;;;;;;8.60;1.90;;;;;;;;;;5037348;28;20206;-63
2021/10/22 00:39:24;;;;;;;7.07;2.15;;;;;;;;;;5037256;28;20218;-64
2021/10/22 00:41:52;;;;;;;11.52;2.20;;;;;;;;;;5036990;28;20206;-64
2021/10/22 00:44:20;;;;;;;3.35;1.80;;;;;;;;;;5037222;28;20296;-63
2021/10/22 00:46:48;;;;;;;5.25;1.70;;;;;;;;;;5037070;28;20202;-64
2021/10/22 00:49:21;;;;;;;7.35;1.70;;;;;;;;;;5036761;28;20222;-63
2021/10/22 00:51:48;;;;;;;10.77;1.77;;;;;;;;;;5036948;28;20222;-64
2021/10/22 00:54:15;;;;;;;5.95;1.70;;;;;;;;;;5036452;28;20233;-65
2021/10/22 00:56:42;;;;;;;6.22;2.45;;;;;;;;;;5036787;28;20213;-64
2021/10/22 00:59:10;;;;;;;3.15;1.25;;;;;;;;;;5036468;28;20736;-65
2021/10/22 01:01:39;;;;;;;8.40;2.00;;;;;;;;;;5035593;28;20426;-64
2021/10/22 01:04:07;;;;;;;4.75;1.95;;;;;;;;;;5036765;28;20445;-64
2021/10/22 01:06:38;;;;;;;9.32;2.30;;;;;;;;;;5036466;28;20210;-63
2021/10/22 01:09:07;;;;;;;5.82;1.77;;;;;;;;;;5036294;28;20226;-64
2021/10/22 01:11:35;;;;;;;3.88;1.58;;;;;;;;;;5036325;28;20202;-64
2021/10/22 01:14:03;;;;;;;7.45;2.42;;;;;;;;;;5036270;28;20222;-64
2021/10/22 01:16:30;;;;;;;5.80;2.03;;;;;;;;;;5036162;28;20202;-64
2021/10/22 01:18:58;;;;;;;8.20;2.08;;;;;;;;;;5035975;28;20810;-65
2021/10/22 01:21:26;;;;;;;4.80;2.15;;;;;;;;;;5036382;28;20210;-64
2021/10/22 01:23:54;;;;;;;9.20;2.10;;;;;;;;;;5036355;28;20209;-64
2021/10/22 01:26:22;;;;;;;5.22;1.58;;;;;;;;;;5035900;28;20213;-64
2021/10/22 01:28:50;;;;;;;8.13;2.38;;;;;;;;;;5035065;28;20783;-64
2021/10/22 01:31:18;;;;;;;7.00;1.90;;;;;;;;;;5035864;28;20242;-63
2021/10/22 01:33:48;;;;;;;8.20;2.40;;;;;;;;;;5034636;28;20423;-64
2021/10/22 01:36:16;;;;;;;9.55;3.30;;;;;;;;;;5035007;28;20226;-64
2021/10/22 01:38:46;;;;;;;5.00;2.30;;;;;;;;;;5035812;28;20725;-65
2021/10/22 01:41:14;;;;;;;4.85;1.58;;;;;;;;;;5039359;28;20208;-64
2021/10/22 01:43:42;;;;;;;4.78;1.73;;;;;;;;;;5040563;28;20202;-64
2021/10/22 01:46:09;;;;;;;7.32;1.77;;;;;;;;;;5039321;28;20202;-64
2021/10/22 01:48:37;;;;;;;6.53;2.10;;;;;;;;;;5040301;28;20231;-63
2021/10/22 01:51:04;;;;;;;7.00;2.03;;;;;;;;;;5036623;28;20205;-63
2021/10/22 01:53:31;;;;;;;9.60;2.17;;;;;;;;;;5036081;28;20233;-64
2021/10/22 01:56:00;;;;;;;11.05;2.00;;;;;;;;;;5036507;28;20213;-64
2021/10/22 01:58:28;;;;;;;8.40;1.73;;;;;;;;;;5035323;28;20222;-64
2021/10/22 02:00:55;;;;;;;7.80;1.95;;;;;;;;;;5035583;28;20213;-63
2021/10/22 02:03:22;;;;;;;10.82;2.17;;;;;;;;;;5035598;28;20202;-64
2021/10/22 02:05:50;;;;;;;5.65;1.52;;;;;;;;;;5050986;28;20182;-65
2021/10/22 02:08:17;;;;;;;6.65;1.80;;;;;;;;;;5056175;28;20208;-66
2021/10/22 02:10:44;;;;;;;4.40;1.35;;;;;;;;;;5048408;28;20202;-63
2021/10/22 02:13:13;;;;;;;7.55;1.80;;;;;;;;;;5038275;28;20218;-63
2021/10/22 02:15:40;;;;;;;3.75;1.60;;;;;;;;;;5035980;28;20206;-63
2021/10/22 02:18:08;;;;;;;7.07;2.25;;;;;;;;;;5035026;28;20206;-65
2021/10/22 02:20:38;;;;;;;6.60;2.28;;;;;;;;;;5035181;28;20702;-64
2021/10/22 02:23:05;;;;;;;7.55;1.75;;;;;;;;;;5035392;28;20260;-64
2021/10/22 02:25:32;;;;;;;7.70;2.00;;;;;;;;;;5036546;28;20202;-63
2021/10/22 02:28:00;;;;;;;5.90;1.77;;;;;;;;;;5036040;28;20202;-63
2021/10/22 02:30:28;;;;;;;11.05;2.10;;;;;;;;;;5034855;28;20222;-64
2021/10/22 02:32:56;;;;;;;6.95;1.70;;;;;;;;;;5034707;28;20245;-64
2021/10/22 02:35:23;;;;;;;8.07;1.95;;;;;;;;;;5035129;28;20206;-64
2021/10/22 02:37:50;;;;;;;5.30;1.50;;;;;;;;;;5034962;28;20213;-64
2021/10/22 02:40:18;;;;;;;3.95;2.20;;;;;;;;;;5034595;28;20226;-64
2021/10/22 02:42:45;;;;;;;8.20;2.35;;;;;;;;;;5034873;28;20213;-65
2021/10/22 02:45:12;;;;;;;6.70;2.00;;;;;;;;;;5034924;28;20249;-64
2021/10/22 02:47:41;;;;;;;7.03;2.00;;;;;;;;;;5033591;28;20209;-63
2021/10/22 02:50:09;;;;;;;10.93;1.92;;;;;;;;;;5034721;28;20218;-65
2021/10/22 02:52:36;;;;;;;5.63;2.08;;;;;;;;;;5034528;28;20693;-64
2021/10/22 02:55:04;;;;;;;5.22;1.80;;;;;;;;;;5034319;28;20732;-63
2021/10/22 02:57:32;;;;;;;4.32;1.90;;;;;;;;;;5034408;28;20198;-64
2021/10/22 02:59:59;;;;;;;12.02;2.55;;;;;;;;;;5034622;28;20221;-64
2021/10/22 03:02:26;;;;;;;4.78;1.40;;;;;;;;;;5034421;28;20202;-64
2021/10/22 03:04:55;;;;;;;3.20;1.80;;;;;;;;;;5034878;28;20199;-64
2021/10/22 03:07:22;;;;;;;4.78;2.05;;;;;;;;;;5034540;28;20198;-64
2021/10/22 03:09:49;;;;;;;6.80;2.30;;;;;;;;;;5034025;28;20225;-64
2021/10/22 03:12:17;;;;;;;4.90;1.55;;;;;;;;;;5034162;28;20209;-63
2021/10/22 03:14:44;;;;;;;5.50;2.10;;;;;;;;;;5034244;28;20225;-65
2021/10/22 03:17:11;;;;;;;5.15;1.98;;;;;;;;;;5034456;28;20674;-63
2021/10/22 03:19:39;;;;;;;8.35;1.90;;;;;;;;;;5033885;28;20230;-64
2021/10/22 03:22:08;;;;;;;7.97;2.10;;;;;;;;;;5034187;28;20202;-64
2021/10/22 03:24:35;;;;;;;10.90;2.42;;;;;;;;;;5034269;28;20210;-64
2021/10/22 03:27:04;;;;;;;8.90;1.90;;;;;;;;;;5033755;28;20198;-64
2021/10/22 03:29:32;;;;;;;6.75;2.50;;;;;;;;;;5034148;28;20223;-64
2021/10/22 03:31:59;;;;;;;7.88;2.70;;;;;;;;;;5034063;28;20204;-63
2021/10/22 03:34:26;;;;;;;3.30;2.03;;;;;;;;;;5033669;28;20233;-64
2021/10/22 03:36:53;;;;;;;10.52;1.95;;;;;;;;;;5034275;28;20213;-63
2021/10/22 03:39:22;;;;;;;5.28;2.38;;;;;;;;;;5033770;28;20248;-63
2021/10/22 03:41:49;;;;;;;9.07;2.15;;;;;;;;;;5033602;28;20202;-64
2021/10/22 03:44:17;;;;;;;8.13;1.90;;;;;;;;;;5033879;28;20198;-64
2021/10/22 03:46:44;;;;;;;3.03;1.55;;;;;;;;;;5033892;28;20206;-64
2021/10/22 03:49:11;;;;;;;6.15;2.78;;;;;;;;;;5033676;28;20713;-64
2021/10/22 03:51:39;;;;;;;6.35;2.10;;;;;;;;;;5033650;28;20202;-64
2021/10/22 03:54:06;;;;;;;7.47;2.42;;;;;;;;;;5033378;28;20233;-63
2021/10/22 03:56:35;;;;;;;7.82;1.90;;;;;;;;;;5033550;28;20198;-63
2021/10/22 03:59:02;;;;;;;4.53;2.05;;;;;;;;;;5032913;28;20237;-63
2021/10/22 04:01:29;;;;;;;8.90;2.63;;;;;;;;;;5033282;28;20199;-63
2021/10/22 04:03:57;;;;;;;6.43;2.80;;;;;;;;;;5033119;28;20693;-63
2021/10/22 04:08:46;;;;;;;4.20;1.85;;;;;;;;;;5091684;27;20559;-63
2021/10/22 04:11:13;;;;;;;4.88;2.25;;;;;;;;;;5090977;28;20207;-63
2021/10/22 04:13:40;;;;;;;4.68;2.63;;;;;;;;;;5091281;28;20236;-61
2021/10/22 04:16:08;;;;;;;10.25;2.80;;;;;;;;;;5091126;28;20199;-64
2021/10/22 04:18:35;;;;;;;11.35;1.80;;;;;;;;;;5090953;28;20228;-63
2021/10/22 04:21:02;;;;;;;4.95;2.17;;;;;;;;;;5091377;28;20207;-64
2021/10/22 04:23:30;;;;;;;5.03;2.63;;;;;;;;;;5090882;28;20215;-65
2021/10/22 04:25:58;;;;;;;10.60;2.70;;;;;;;;;;5091205;28;20682;-64
2021/10/22 04:28:26;;;;;;;9.43;3.00;;;;;;;;;;5089492;28;20422;-63
2021/10/22 04:30:53;;;;;;;9.88;2.85;;;;;;;;;;5090963;28;20202;-63
2021/10/22 04:33:21;;;;;;;8.40;2.70;;;;;;;;;;5091400;28;20205;-63
2021/10/22 04:35:48;;;;;;;8.70;2.65;;;;;;;;;;5090931;28;20208;-64
2021/10/22 04:41:04;;;;;;;10.40;3.10;;;;;;;;;;5092612;28;20244;-64
2021/10/22 04:43:31;;;;;;;13.82;3.17;;;;;;;;;;5091106;28;20263;-64
2021/10/22 04:45:58;;;;;;;4.05;2.70;;;;;;;;;;5090308;28;20197;-62
2021/10/22 04:48:26;;;;;;;12.07;3.40;;;;;;;;;;5090033;28;20235;-64
2021/10/22 04:50:53;;;;;;;8.18;2.92;;;;;;;;;;5090182;28;20211;-63
2021/10/22 04:53:25;;;;;;;10.13;2.70;;;;;;;;;;5090081;28;20205;-63
2021/10/22 04:55:53;;;;;;;7.60;3.20;;;;;;;;;;5101127;28;20215;-64
2021/10/22 04:58:22;;;;;;;10.55;3.40;;;;;;;;;;5091290;28;20202;-65
2021/10/22 05:00:49;;;;;;;9.25;3.40;;;;;;;;;;5089975;28;20612;-64
2021/10/22 05:03:17;;;;;;;7.40;2.80;;;;;;;;;;5090604;28;20203;-64
2021/10/22 05:05:44;;;;;;;11.63;3.70;;;;;;;;;;5089903;28;20208;-64
2021/10/22 05:08:11;;;;;;;12.57;3.63;;;;;;;;;;5089584;28;20229;-63
2021/10/22 05:10:38;;;;;;;9.32;3.35;;;;;;;;;;5089600;28;20197;-65
2021/10/22 05:13:06;;;;;;;11.00;4.10;;;;;;;;;;5089888;28;20201;-63
2021/10/22 05:15:35;;;;;;;13.68;3.97;;;;;;;;;;5089705;28;20202;-64
2021/10/22 05:18:02;;;;;;;8.60;3.50;;;;;;;;;;5088908;28;20254;-64
2021/10/22 05:20:29;;;;;;;8.30;3.30;;;;;;;;;;5075808;28;20351;-65
2021/10/22 05:22:57;;;;;;;6.88;3.40;;;;;;;;;;5075954;28;20204;-61
2021/10/22 05:25:24;;;;;;;11.00;4.00;;;;;;;;;;5075560;28;20200;-64
2021/10/22 05:27:52;;;;;;;9.02;3.40;;;;;;;;;;5075827;28;20252;-64
2021/10/22 05:30:19;;;;;;;7.07;2.80;;;;;;;;;;5075506;28;20311;-64
2021/10/22 05:32:48;;;;;;;7.30;3.83;;;;;;;;;;5075715;28;20211;-64
2021/10/22 05:35:15;;;;;;;12.18;3.42;;;;;;;;;;5075979;28;20206;-63
2021/10/22 05:37:43;;;;;;;8.63;3.33;;;;;;;;;;5075891;28;20253;-64
2021/10/22 05:40:10;;;;;;;10.82;3.65;;;;;;;;;;5075520;28;20221;-63
2021/10/22 05:42:38;;;;;;;8.20;2.85;;;;;;;;;;5075736;28;20213;-64
2021/10/22 05:45:05;;;;;;;7.10;3.20;;;;;;;;;;5075533;28;20201;-64
2021/10/22 05:47:33;;;;;;;8.02;3.15;;;;;;;;;;5075581;28;20227;-63
2021/10/22 05:50:01;;;;;;;7.28;2.85;;;;;;;;;;5075694;28;20224;-64
2021/10/22 05:52:29;;;;;;;6.47;3.00;;;;;;;;;;5075980;28;20201;-63
2021/10/22 05:54:56;;;;;;;10.52;3.42;;;;;;;;;;5075639;28;20199;-64
2021/10/22 05:57:23;;;;;;;12.40;3.13;;;;;;;;;;5076238;28;20568;-63
2021/10/22 05:59:50;;;;;;;7.93;2.90;;;;;;;;;;5075608;28;20228;-64
2021/10/22 06:02:18;;;;;;;7.65;2.45;;;;;;;;;;5075582;28;20208;-63
2021/10/22 06:04:45;;;;;;;6.72;3.03;;;;;;;;;;5075605;28;20203;-63
2021/10/22 06:07:14;;;;;;;6.10;3.15;;;;;;;;;;5075602;28;20237;-63
2021/10/22 06:09:42;;;;;;;7.70;2.33;;;;;;;;;;5076287;28;20640;-63
2021/10/22 06:12:09;;;;;;;6.97;2.75;;;;;;;;;;5078368;28;20209;-61
2021/10/22 06:14:38;;;;;;;4.80;2.53;;;;;;;;;;5078242;28;20202;-64
2021/10/22 06:17:06;;;;;;;7.32;2.65;;;;;;;;;;5077603;28;20255;-64
2021/10/22 06:19:38;;;;;;;7.70;2.75;;;;;;;;;;5075254;28;20221;-64
2021/10/22 06:22:16;;;;;;;7.07;2.92;;;;;;;;;;5075301;28;20190;-64
2021/10/22 06:24:45;;;;;;;6.75;1.88;;;;;;;;;;5080064;22;20239;-60
2021/10/22 06:27:13;;;;;;;9.73;2.45;;;;;;;;;;5034496;28;20210;-60
2021/10/22 06:29:40;;;;;;;7.75;2.70;;;;;;;;;;5033977;28;20299;-60
2021/10/22 06:32:08;;;;;;;10.70;2.70;;;;;;;;;;5034026;28;20215;-60
2021/10/22 06:34:35;;;;;;;8.13;2.65;;;;;;;;;;5034664;28;20229;-59
2021/10/22 06:37:02;;;;;;;9.75;2.85;;;;;;;;;;5034400;28;20564;-60
2021/10/22 06:39:30;;;;;;;15.95;3.20;;;;;;;;;;5034450;28;20201;-60
2021/10/22 06:41:58;;;;;;;9.63;2.83;;;;;;;;;;5034595;28;20212;-61
2021/10/22 06:44:27;;;;;;;5.25;2.15;;;6.40;99.90;;;;;;5034647;28;20233;-60
2021/10/22 06:46:55;;;;;;;5.95;2.45;;;8.00;96.40;;;;;;5033973;28;20210;-61
2021/10/22 06:49:22;;;;;;;11.20;3.00;;;8.00;96.00;;;;;;5033995;28;20287;-59
2021/10/22 06:51:50;;;;;;;10.25;2.20;;;8.10;95.90;;;;;;5034053;28;20206;-60
2021/10/22 06:54:17;;;;;;;8.98;2.70;;;8.10;95.80;;;;;;5034052;28;20241;-61
2021/10/22 06:56:44;;;;;;;8.93;2.38;;;8.20;95.60;;;;;;5034300;28;20217;-60
2021/10/22 06:59:12;;;;;;;7.88;2.67;;;8.20;95.40;;;;;;5034035;28;20205;-60
2021/10/22 07:01:39;;;;;;;6.57;2.33;;;8.20;95.10;;;;;;5034257;28;20202;-60
2021/10/22 07:04:09;;;;;;;6.07;2.60;;;8.20;94.90;;;;;;5034105;28;20237;-61
2021/10/22 07:09:20;;;;;;;13.15;2.55;;;8.30;94.70;;;;;;5030179;28;20328;-60
2021/10/22 07:11:47;;;;;;;6.68;2.90;;;8.30;94.80;;;;;;5033545;28;20309;-60
2021/10/22 07:14:16;;;;;;;10.07;2.95;;;8.30;94.90;;;;;;5033355;28;20222;-61
2021/10/22 07:16:43;;;;;;;9.00;2.45;;;8.30;94.80;;;;;;5033630;28;20308;-60
2021/10/22 07:19:10;;;;;;;8.38;2.65;;;8.30;94.70;;;;;;5033785;28;20209;-60
2021/10/22 07:21:43;;;;;;;11.15;3.17;;;8.40;94.50;;;;;;5033163;28;20677;-60
2021/10/22 07:24:16;;;;;;;6.40;2.65;;;8.50;94.40;;;;;;5033033;28;20236;-60
2021/10/22 07:26:44;;;;;;;6.82;2.58;;;8.50;94.40;;;;;;5033621;28;20225;-59
2021/10/22 07:29:11;;;;;;;8.20;2.80;;;8.50;94.00;;;;;;5033139;28;20225;-60
2021/10/22 07:31:39;;;;;;;5.95;2.47;;;8.50;94.00;;;;;;5033034;28;20700;-57
2021/10/22 07:34:07;;;;;;;9.27;2.88;;;8.50;94.00;;;;;;5033032;28;20717;-60
2021/10/22 07:36:35;;;;;;;10.20;2.88;;;8.60;94.00;;;;;;5033211;28;20202;-60
2021/10/22 07:39:02;;;;;;;8.43;2.88;;;8.60;94.30;;;;;;5033333;28;20224;-60
2021/10/22 07:41:29;;;;;;;8.43;2.65;;;8.50;94.80;;;;;;5032939;28;20202;-60
2021/10/22 07:43:56;;;;;;;6.68;2.50;;;8.40;95.30;;;;;;5032837;28;20234;-60
2021/10/22 07:46:23;;;;;;;5.00;2.38;;;8.40;95.60;;;;;;5032861;28;20708;-60
2021/10/22 07:48:52;;;;;;;6.07;2.50;;;8.40;95.90;;;;;;5033501;28;20214;-60
2021/10/22 07:51:19;;;;;;;9.65;2.92;;;8.40;95.80;;;;;;5033087;28;20669;-60
2021/10/22 07:53:46;;;;;;;7.90;2.35;;;8.50;96.00;;;;;;5032836;28;20198;-61
2021/10/22 07:56:13;;;;;;;3.67;1.85;;;8.50;95.90;;;;;;5033090;28;20202;-61
2021/10/22 07:58:40;;;;;;;5.03;2.25;;;8.50;95.80;;;;;;5032769;28;20198;-61
2021/10/22 08:01:07;;;;;;;7.30;2.15;;;8.60;95.80;;;;;;5032627;28;20224;-60
2021/10/22 08:03:34;;;;;;;6.80;2.50;;;8.70;95.80;;;;;;5033351;28;20206;-61
2021/10/22 08:06:03;;;;;;;6.32;2.60;;;8.80;95.60;;;;;;5033411;28;20213;-63
2021/10/22 08:08:31;;;;;;;5.35;1.80;;;8.90;95.50;;;;;;5033545;28;20222;-61
2021/10/22 08:10:58;;;;;;;4.50;2.00;;;9.10;95.30;;;;;;5033256;28;20206;-60
2021/10/22 08:13:25;;;;;;;5.43;2.30;;;9.30;94.70;;;;;;5033377;28;20661;-61
2021/10/22 08:15:52;;;;;;;6.75;2.28;;;9.50;94.20;;;;;;5032593;28;20222;-60
2021/10/22 08:18:19;;;;;;;6.43;2.22;;;9.60;93.60;;;;;;5032919;28;20203;-61
2021/10/22 08:20:54;;;;;;;5.57;2.17;;;9.60;93.20;;;;;;5032611;28;20206;-62
2021/10/22 08:23:23;;;;;;;10.27;2.55;;;9.60;92.90;;;;;;5032591;28;20650;-62
2021/10/22 08:25:51;;;;;;;8.40;2.13;;;9.60;92.90;;;;;;5032265;28;20229;-61
2021/10/22 08:28:18;;;;;;;5.50;2.28;;;9.70;92.90;;;;;;5032854;28;20596;-61
2021/10/22 08:30:46;;;;;;;5.28;2.25;;;9.70;92.70;;;;;;5032659;28;20204;-61
2021/10/22 08:33:14;;;;;;;8.65;1.98;;;9.80;92.60;;;;;;5032576;28;20206;-62
2021/10/22 08:35:41;;;;;;;9.02;1.70;;;9.90;92.40;;;;;;5032658;28;20218;-61
2021/10/22 08:38:09;;;;;;;6.03;1.75;;;10.00;91.80;;;;;;5032706;28;20194;-61
2021/10/22 08:40:38;;;;;;;6.45;2.03;;;10.10;91.40;;;;;;5032514;28;20198;-61
2021/10/22 08:43:05;;;;;;;5.85;2.60;;;10.20;91.20;;;;;;5032370;28;20207;-61
2021/10/22 08:45:33;;;;;;;11.32;2.58;;;10.30;90.80;;;;;;5032685;28;20233;-62
2021/10/22 08:48:01;;;;;;;8.93;2.65;;;10.30;90.50;;;;;;5032368;28;20211;-62
2021/10/22 08:50:28;;;;;;;11.97;2.60;;;10.40;90.40;;;;;;5033306;28;20216;-61
2021/10/22 08:52:55;;;;;;;8.40;2.90;;;10.40;90.20;;;;;;5032850;28;20815;-62
2021/10/22 08:55:23;;;;;;;4.37;1.90;;;10.50;89.60;;;;;;5035912;28;20470;-61
2021/10/22 08:57:51;;;;;;;6.80;2.03;;;10.50;89.40;;;;;;5036332;28;20450;-62
2021/10/22 09:00:20;;;;;;;6.82;1.90;;;10.60;89.10;;;;;;5036101;28;20940;-62
2021/10/22 09:02:48;;;;;;;5.13;1.80;;;10.70;88.40;;;;;;5036490;28;20203;-62
2021/10/22 09:05:18;;;;;;;7.37;2.00;;;10.80;88.00;;;;;;5035812;28;20484;-61
2021/10/22 09:07:47;;;;;;;7.90;2.20;;;10.80;87.00;;;;;;5036295;28;20908;-62
2021/10/22 09:10:17;;;;;;;5.63;2.23;;;10.80;86.50;;;;;;5037112;28;20556;-63
2021/10/22 09:12:47;;;;;;;5.70;1.70;;;10.80;85.40;;;;;;5037226;28;20952;-62
2021/10/22 09:15:21;;;;;;;5.87;2.10;;;10.80;84.20;;;;;;5036461;28;20467;-62
2021/10/22 09:17:48;;;;;;;7.43;2.50;;;10.90;84.10;;;;;;5034973;28;20491;-61
2021/10/22 09:20:16;;;;;;;6.70;1.70;;;10.90;83.10;;;;;;5035480;28;20523;-63
2021/10/22 09:22:49;;;;;;;8.87;2.33;;;10.90;82.90;;;;;;5035413;28;20450;-62
2021/10/22 09:25:21;;;;;;;7.77;2.13;;;11.00;83.20;;;;;;5035793;28;20501;-62
2021/10/22 09:27:52;;;;;;;3.17;1.90;;;11.20;82.70;;;;;;5035646;28;20437;-62
2021/10/22 09:30:34;;;;;;;6.97;2.35;;;11.30;81.70;;;;;;5034387;28;20427;-63
2021/10/22 09:33:03;;;;;;;8.10;2.33;;;11.50;81.10;;;;;;5035476;28;20214;-63
2021/10/22 09:35:37;;;;;;;6.00;1.97;;;11.60;80.50;;;;;;5035716;28;20480;-63
2021/10/22 09:38:19;;;;;;;12.50;1.97;;;11.70;79.80;;;;;;5035338;28;20437;-65
2021/10/22 09:40:49;;;;;;;8.07;2.17;;;11.60;78.50;;;;;;5035443;28;20436;-63
2021/10/22 09:43:22;;;;;;;4.50;1.90;;;11.50;77.90;;;;;;5035572;28;20450;-62
2021/10/22 09:45:52;;;;;;;6.43;2.10;;;11.40;78.90;;;;;;5035705;28;20468;-61
2021/10/22 09:48:30;;;;;;;3.10;1.63;;;11.50;77.80;;;;;;5035392;28;20454;-59
2021/10/22 09:51:19;;;;;;;6.53;3.70;;;11.40;77.10;;;;;;5035225;28;20446;-62
2021/10/22 09:53:46;;;;;;;7.30;2.80;;;11.30;77.40;;;;;;5035264;28;20436;-62
2021/10/22 09:56:20;;;;;;;3.77;1.73;;;11.20;77.50;;;;;;5035011;28;20446;-61
2021/10/22 09:58:55;;;;;;;6.50;2.20;;;11.20;77.80;;;;;;5035049;28;20434;-61
2021/10/22 10:01:29;;;;;;;5.40;1.77;;;11.10;77.40;;;;;;5034799;28;20535;-59
2021/10/22 10:03:58;;;;;;;6.00;2.00;;;11.10;78.20;;;;;;5035114;28;20482;-59
2021/10/22 10:06:25;;;;;;;4.27;1.77;;;11.20;78.40;;;;;;5034828;28;20793;-61
2021/10/22 10:08:52;;;;;;;3.30;2.20;;;11.40;77.00;;;;;;5034853;28;20484;-60
2021/10/22 10:11:20;;;;;;;4.43;2.60;;;11.30;77.40;;;;;;5034459;28;20443;-62
2021/10/22 10:13:48;;;;;;;7.13;2.30;;;11.40;77.40;;;;;;5034241;28;20503;-62
2021/10/22 10:16:17;;;;;;;4.63;1.87;;;11.40;77.70;;;;;;5035112;28;20479;-62
2021/10/22 10:18:53;;;;;;;6.43;1.60;;;11.50;77.70;;;;;;5034708;28;20444;-62
2021/10/22 10:21:21;;;;;;;5.93;2.40;;;11.50;76.90;;;;;;5035178;28;20795;-61
2021/10/22 10:23:51;;;;;;;10.43;1.83;;;11.50;75.90;;;;;;5034109;28;20447;-61
2021/10/22 10:26:27;;;;;;;3.50;1.73;;;11.40;75.20;;;;;;5034485;28;20447;-61
2021/10/22 10:28:55;;;;;;;8.67;2.60;;;11.30;75.80;;;;;;5034866;28;20472;-62
2021/10/22 10:31:34;;;;;;;4.37;1.70;;;11.20;76.50;;;;;;5034108;28;20949;-62
2021/10/22 10:34:23;;;;;;;5.50;2.10;;;11.10;77.10;;;;;;5033985;28;20466;-62
2021/10/22 10:36:52;;;;;;;3.10;1.50;;;11.00;78.00;;;;;;5034124;28;20449;-61
2021/10/22 10:39:56;;;;;;;4.50;2.10;;;11.00;78.80;;;;;;5034188;28;20603;-61
2021/10/22 10:42:26;;;;;;;4.73;1.50;;;11.10;79.40;;;;;;5024151;28;20910;-61
2021/10/22 10:44:55;;;;;;;7.43;1.80;;;11.20;79.20;;;;;;5033793;28;20509;-62
2021/10/22 10:47:50;;;;;;;9.50;2.00;;;11.30;78.80;;;;;;5034214;28;20529;-62
2021/10/22 10:50:21;;;;;;;6.73;2.33;;;11.40;78.30;;;;;;5033706;28;20558;-62
2021/10/22 10:52:58;;;;;;;14.73;2.50;;;11.30;78.50;;;;;;5033792;28;20916;-61
2021/10/22 10:55:29;;;;;;;4.43;2.23;;;11.30;79.80;;;;;;5033741;28;20472;-62
2021/10/22 10:57:58;;;;;;;16.23;6.90;;;11.20;81.20;;;;;;5033975;28;20535;-61
2021/10/22 11:00:30;;;;;;;5.30;2.17;;;11.10;82.70;;;;;;5034169;28;20454;-61
2021/10/22 11:03:11;;;;;;;5.07;2.03;;;11.00;82.80;;;;;;5034032;28;20483;-62
2021/10/22 11:06:11;;;;;;;5.53;2.20;;;10.90;83.80;;;;;;5033813;28;20319;-62
2021/10/22 11:08:43;;;;;;;6.40;2.13;;;10.90;83.60;;;;;;5028817;28;20843;-63
2021/10/22 11:11:32;;;;;;;6.85;2.42;;;10.90;83.20;;;;;;5033719;28;20864;-60
2021/10/22 11:14:13;;;;;;;4.55;1.88;;;10.90;84.10;;;;;;5033454;28;20233;-57
2021/10/22 11:16:45;;;;;;;7.43;2.35;;;10.80;85.00;;;;;;5033230;28;20197;-57
2021/10/22 11:19:14;;;;;;;3.78;1.48;;;10.80;85.80;;;;;;5033678;28;20182;-57
2021/10/22 11:21:45;;;;;;;7.82;2.33;;;10.70;87.60;;;;;;5033640;28;20202;-56
2021/10/22 11:24:16;;;;;;;5.60;2.22;;;;;;;;;;5033402;28;20271;-57
2021/10/22 11:26:44;;;;;;;5.50;1.60;;;;;;;;;;5033443;28;20218;-58
2021/10/22 11:29:15;;;;;;;8.10;1.88;;;;;;;;;;5033266;28;20222;-58
2021/10/22 11:31:44;;;;;;;5.68;2.20;;;;;;;;;;5033131;28;20571;-59
2021/10/22 11:34:14;;;;;;;8.90;2.65;;;;;;;;;;5033078;28;20748;-60
2021/10/22 11:36:42;;;;;;;7.72;2.10;;;;;;;;;;5034086;28;20189;-59
2021/10/22 11:39:21;;;;;;;7.50;2.72;;;;;;;;;;5033395;28;20198;-61
2021/10/22 11:42:01;;;;;;;6.63;2.40;;;;;;;;;;5032974;28;20721;-60
2021/10/22 11:44:28;;;;;;;7.32;2.08;;;;;;;;;;5033145;28;20222;-60
2021/10/22 11:46:56;;;;;;;10.60;2.42;;;;;;;;;;5032969;28;20228;-60
2021/10/22 11:49:25;;;;;;;8.23;2.97;;;;;;;;;;5032920;28;20261;-60
2021/10/22 11:51:53;;;;;;;5.38;2.50;;;;;;;;;;5033190;28;20202;-61
2021/10/22 11:54:23;;;;;;;3.75;2.15;;;;;;;;;;5032821;28;20280;-60
2021/10/22 11:56:50;;;;;;;6.47;2.50;;;;;;;;;;5033031;28;20213;-60
2021/10/22 11:59:18;;;;;;;7.10;2.40;;;;;;;;;;5032848;28;20205;-60
2021/10/22 12:01:46;;;;;;;4.75;2.55;;;;;;;;;;5033266;28;20206;-60
2021/10/22 12:04:24;;;;;;;8.95;2.70;;;;;;;;;;5032581;28;20265;-59
2021/10/22 12:07:00;;;;;;;5.18;2.05;;;;;;;;;;5033216;28;20182;-60
2021/10/22 12:09:33;;;;;;;4.70;2.17;;;;;;;;;;5032500;28;20224;-61
2021/10/22 12:12:04;;;;;;;5.68;2.15;;;;;;;;;;5032529;28;20274;-60
2021/10/22 12:14:33;;;;;;;6.50;2.67;;;;;;;;;;5033069;28;20218;-60
2021/10/22 12:17:01;;;;;;;7.03;2.55;;;;;;;;;;5032684;28;20205;-59
2021/10/22 12:19:29;;;;;;;4.70;2.17;;;;;;;;;;5032631;28;20209;-60
2021/10/22 12:21:56;;;;;;;9.38;2.75;;;;;;;;;;5032498;28;20576;-59
2021/10/22 12:24:24;;;;;;;4.53;2.65;;;;;;;;;;5032549;28;20616;-59
2021/10/22 12:27:04;;;;;;;8.80;3.28;;;;;;;;;;5057329;22;20237;-62
2021/10/22 12:29:45;;;;;;;4.30;2.20;;;;;;;;;;5035623;28;20259;-62
2021/10/22 12:32:12;;;;;;;6.88;2.20;;;;;;;;;;5038642;28;20197;-66
2021/10/22 12:34:40;;;;;;;13.35;2.50;;;;;;;;;;5037664;28;20217;-64
2021/10/22 12:37:09;;;;;;;8.82;2.72;;;;;;;;;;5037088;28;20226;-64
2021/10/22 12:39:41;;;;;;;8.10;2.88;;;;;;;;;;5036636;28;20217;-64
2021/10/22 12:42:23;;;;;;;5.90;2.08;;;;;;;;;;5037480;28;20658;-63
2021/10/22 12:44:50;;;;;;;8.25;2.70;;;;;;;;;;5036653;28;20280;-61
2021/10/22 12:47:18;;;;;;;4.50;2.60;;;;;;;;;;5036673;28;20246;-64
2021/10/22 12:49:52;;;;;;;8.50;2.50;;;;;;;;;;5036979;28;20229;-64
2021/10/22 12:52:20;;;;;;;5.10;2.10;;;;;;;;;;5037346;28;20242;-64
2021/10/22 12:54:47;;;;;;;9.48;3.30;;;;;;;;;;5037068;28;20209;-65
2021/10/22 12:57:24;;;;;;;9.15;3.63;;;;;;;;;;5036932;28;20748;-63
2021/10/22 12:59:52;;;;;;;7.68;2.90;;;;;;;;;;5037104;28;20189;-63
2021/10/22 13:02:26;;;;;;;3.60;3.22;;;;;;;;;;5037573;28;20248;-63
2021/10/22 13:05:08;;;;;;;6.40;3.28;;;;;;;;;;5037736;28;20205;-63
2021/10/22 13:07:43;;;;;;;10.00;2.05;;;;;;;;;;5037790;28;20671;-64
2021/10/22 13:10:23;;;;;;;2.88;2.10;;;;;;;;;;5037502;28;20213;-64
2021/10/22 13:13:00;;;;;;;7.50;2.47;;;;;;;;;;5037431;28;20620;-64
2021/10/22 13:15:46;;;;;;;1.85;1.33;;;;;;;;;;5038136;28;20225;-65
2021/10/22 13:20:59;;;;;;;4.05;1.73;;;;;;;;;;5038925;28;20186;-63
2021/10/22 13:23:26;;;;;;;3.20;1.50;;;;;;;;;;5040412;28;20224;-63
2021/10/22 13:25:54;;;;;;;3.33;2.15;;;;;;;;;;5040997;28;20289;-65
2021/10/22 13:28:25;;;;;;;2.38;1.58;;;;;;;;;;5044178;28;20209;-65
2021/10/22 13:30:56;;;;;;;2.63;1.83;;;;;;;;;;5041401;28;20213;-63
2021/10/22 13:33:28;;;;;;;7.22;1.95;;;;;;;;;;5041515;28;20197;-64
2021/10/22 13:35:56;;;;;;;4.03;2.15;;;10.60;88.90;;;;;;5039813;28;20367;-63
2021/10/22 13:38:23;;;;;;;3.75;1.92;;;8.80;99.90;;;;;;5037016;28;20205;-64
2021/10/22 13:40:51;;;;;;;1.20;0.93;;;8.80;99.90;;;;;;5036889;28;20579;-63
2021/10/22 13:43:18;;;;;;;1.50;1.20;;;8.80;99.90;;;;;;5038320;28;20198;-62
2021/10/22 13:45:47;;;;;;;1.85;1.15;;;8.80;99.90;;;;;;5040961;28;20301;-63
2021/10/22 13:48:14;;;;;;;1.23;0.90;;;;;;;;;;5040974;28;20206;-62
2021/10/22 13:50:42;;;;;;;4.10;1.60;;;;;;;;;;5042591;28;20226;-64
2021/10/22 13:53:11;;;;;;;1.92;1.08;;;;;;;;;;5041403;28;20234;-64
2021/10/22 13:55:38;;;;;;;2.95;1.48;;;;;;;;;;5038161;28;20222;-64
2021/10/22 13:58:06;;;;;;;1.42;0.90;;;;;;;;;;5037519;28;20209;-62
2021/10/22 14:00:33;;;;;;;1.92;1.20;;;;;;;;;;5038311;28;20318;-63
2021/10/22 14:03:02;;;;;;;2.75;1.30;;;;;;;;;;5038211;28;20201;-64
2021/10/22 14:05:30;;;;;;;4.15;1.08;;;;;;;;;;5036852;28;20308;-64
2021/10/22 14:07:57;;;;;;;5.15;1.73;;;;;;;;;;5036053;28;20202;-65
2021/10/22 14:10:26;;;;;;;2.15;1.15;;;;;;;;;;5035754;28;20674;-64
2021/10/22 14:13:03;;;;;;;2.63;1.10;;;;;;;;;;5035084;28;20198;-65
2021/10/22 14:15:44;;;;;;;3.97;1.25;;;;;;;;;;5039840;28;20282;-64
2021/10/22 14:18:29;;;;;;;2.45;1.20;;;;;;;;;;5041894;28;20190;-63
2021/10/22 14:24:02;;;;;;;3.95;1.70;;;;;;;;;;5035122;28;20229;-67
2021/10/22 14:29:16;;;;;;;2.38;1.10;;;;;;;;;;5035363;28;20297;-69